createdAt,value
2023-06-10T00:00:02.800Z,24.08
2023-06-10T00:02:30.689Z,25.05
2023-06-10T00:04:58.552Z,23.67
2023-06-10T00:07:28.023Z,22.48
2023-06-10T00:09:55.423Z,25.05
2023-06-10T00:12:23.011Z,24.05
2023-06-10T00:14:50.517Z,21.23
2023-06-10T00:17:17.910Z,23.13
2023-06-10T00:19:45.383Z,23.42
2023-06-10T00:22:12.937Z,20.50
2023-06-10T00:24:42.713Z,21.83
2023-06-10T00:27:10.183Z,21.08
2023-06-10T00:29:37.761Z,20.70
2023-06-10T00:32:06.176Z,21.05
2023-06-10T00:34:33.898Z,21.05
2023-06-10T00:37:01.405Z,19.63
2023-06-10T00:39:28.721Z,22.77
2023-06-10T00:41:57.500Z,20.33
2023-06-10T00:44:25.128Z,20.92
2023-06-10T00:46:52.634Z,22.63
2023-06-10T00:49:20.798Z,23.33
2023-06-10T00:51:48.410Z,23.00
2023-06-10T00:54:15.903Z,20.00
2023-06-10T00:56:43.658Z,20.92
2023-06-10T00:59:12.613Z,23.52
2023-06-10T01:01:40.034Z,18.80
2023-06-10T01:04:07.771Z,21.02
2023-06-10T01:06:42.354Z,20.05
2023-06-10T01:09:19.671Z,18.10
2023-06-10T01:11:56.197Z,22.25
2023-06-10T01:14:26.172Z,16.80
2023-06-10T01:16:54.061Z,18.13
2023-06-10T01:19:21.493Z,18.33
2023-06-10T01:21:50.424Z,20.35
2023-06-10T01:24:17.998Z,21.90
2023-06-10T01:26:50.120Z,20.85
2023-06-10T01:29:21.346Z,19.77
2023-06-10T01:31:53.427Z,19.10
2023-06-10T01:34:24.943Z,19.58
2023-06-10T01:39:25.108Z,22.60
2023-06-10T01:41:53.742Z,18.63
2023-06-10T01:44:21.467Z,19.88
2023-06-10T01:46:49.106Z,22.23
2023-06-10T01:49:18.417Z,20.85
2023-06-10T01:51:45.832Z,18.83
2023-06-10T01:54:14.849Z,19.73
2023-06-10T01:56:43.269Z,20.02
2023-06-10T01:59:10.701Z,21.60
2023-06-10T02:01:38.446Z,19.95
2023-06-10T02:04:06.019Z,20.35
2023-06-10T02:06:33.925Z,21.55
2023-06-10T02:09:01.576Z,20.08
2023-06-10T02:11:30.494Z,21.95
2023-06-10T02:13:57.875Z,20.52
2023-06-10T02:16:25.853Z,21.55
2023-06-10T02:18:53.270Z,19.17
2023-06-10T02:21:20.622Z,20.20
2023-06-10T02:23:48.364Z,19.30
2023-06-10T02:26:15.801Z,19.65
2023-06-10T02:28:45.366Z,19.00
2023-06-10T02:31:13.009Z,18.67
2023-06-10T02:33:40.332Z,19.33
2023-06-10T02:36:08.120Z,23.13
2023-06-10T02:38:35.912Z,18.20
2023-06-10T02:41:03.301Z,19.52
2023-06-10T02:43:30.667Z,17.77
2023-06-10T02:45:59.768Z,17.55
2023-06-10T02:48:28.980Z,18.77
2023-06-10T02:50:56.394Z,18.33
2023-06-10T02:53:24.388Z,23.73
2023-06-10T02:55:51.804Z,18.05
2023-06-10T02:58:21.963Z,16.58
2023-06-10T03:00:49.750Z,14.68
2023-06-10T03:03:18.445Z,15.18
2023-06-10T03:05:45.814Z,16.35
2023-06-10T03:08:14.120Z,14.20
2023-06-10T03:10:41.404Z,17.88
2023-06-10T03:13:08.764Z,15.35
2023-06-10T03:15:37.816Z,16.75
2023-06-10T03:18:05.440Z,15.25
2023-06-10T03:20:40.998Z,14.57
2023-06-10T03:23:10.969Z,15.63
2023-06-10T03:25:38.552Z,13.18
2023-06-10T03:28:06.002Z,16.48
2023-06-10T03:30:34.295Z,16.83
2023-06-10T03:33:01.960Z,13.52
2023-06-10T03:35:29.466Z,14.30
2023-06-10T03:41:20.843Z,15.48
2023-06-10T03:43:51.453Z,18.45
2023-06-10T03:48:38.632Z,14.53
2023-06-10T03:50:47.657Z,13.60
2023-06-10T03:53:22.390Z,14.55
2023-06-10T03:56:23.395Z,13.07
2023-06-10T03:59:10.758Z,12.70
2023-06-10T04:01:47.542Z,15.88
2023-06-10T04:04:32.637Z,16.50
2023-06-10T04:07:11.615Z,12.13
2023-06-10T04:09:40.878Z,12.32
2023-06-10T04:12:09.229Z,13.93
2023-06-10T04:14:37.669Z,14.65
2023-06-10T04:17:06.663Z,14.18
2023-06-10T04:19:34.236Z,12.98
2023-06-10T04:22:02.634Z,13.20
2023-06-10T04:24:30.392Z,11.75
2023-06-10T04:26:59.789Z,15.15
2023-06-10T04:29:27.481Z,11.10
2023-06-10T04:31:55.188Z,11.65
2023-06-10T04:34:26.583Z,15.68
2023-06-10T04:36:56.890Z,10.93
2023-06-10T04:39:25.268Z,16.02
2023-06-10T04:41:53.190Z,14.13
2023-06-10T04:44:27.557Z,12.98
2023-06-10T04:46:57.355Z,14.00
2023-06-10T04:49:39.500Z,14.05
2023-06-10T04:52:08.026Z,14.60
2023-06-10T04:54:38.396Z,12.05
2023-06-10T04:57:13.368Z,12.82
2023-06-10T05:02:58.702Z,12.13
2023-06-10T05:05:27.196Z,14.50
2023-06-10T05:08:02.797Z,11.73
2023-06-10T05:10:35.715Z,15.45
2023-06-10T05:13:03.449Z,13.90
2023-06-10T05:15:32.890Z,15.68
2023-06-10T05:18:04.144Z,15.75
2023-06-10T05:20:31.907Z,13.57
2023-06-10T05:22:59.959Z,12.73
2023-06-10T05:25:30.001Z,14.82
2023-06-10T05:27:57.680Z,13.05
2023-06-10T05:30:25.678Z,13.18
2023-06-10T05:32:57.940Z,10.43
2023-06-10T05:35:35.278Z,11.88
2023-06-10T05:38:07.607Z,12.52
2023-06-10T05:40:49.340Z,13.25
2023-06-10T05:46:29.936Z,13.57
2023-06-10T05:49:26.065Z,13.75
2023-06-10T05:52:42.747Z,10.95
2023-06-10T05:55:12.408Z,11.85
2023-06-10T05:57:43.763Z,14.45
2023-06-10T06:00:14.021Z,10.13
2023-06-10T06:02:46.020Z,10.48
2023-06-10T06:05:19.137Z,12.35
2023-06-10T06:07:49.471Z,14.02
2023-06-10T06:10:19.008Z,11.93
2023-06-10T06:12:48.130Z,11.45
2023-06-10T06:15:44.034Z,8.82
2023-06-10T06:21:33.886Z,9.02
2023-06-10T06:24:03.099Z,12.82
2023-06-10T06:26:34.925Z,10.80
2023-06-10T06:29:04.020Z,11.52
2023-06-10T06:31:33.645Z,12.02
2023-06-10T06:34:05.236Z,11.55
2023-06-10T06:45:42.712Z,9.30
2023-06-10T06:48:13.678Z,14.52
2023-06-10T06:50:48.574Z,13.20
2023-06-10T06:53:22.595Z,14.82
2023-06-10T06:55:54.475Z,10.35
2023-06-10T06:58:22.418Z,7.97
2023-06-10T07:00:50.970Z,8.35
2023-06-10T07:03:19.388Z,11.50
2023-06-10T07:05:48.836Z,12.82
2023-06-10T07:08:18.398Z,11.85
2023-06-10T07:10:46.766Z,12.27
2023-06-10T07:13:20.658Z,9.52
2023-06-10T07:15:49.181Z,8.88
2023-06-10T07:21:33.866Z,10.68
2023-06-10T07:24:09.045Z,10.60
2023-06-10T07:26:37.225Z,12.07
2023-06-10T07:29:05.002Z,8.93
2023-06-10T07:31:33.063Z,9.73
2023-06-10T07:34:01.122Z,12.77
2023-06-10T07:36:33.285Z,12.73
2023-06-10T07:39:02.135Z,9.27
2023-06-10T07:41:31.962Z,9.52
2023-06-10T07:43:59.574Z,7.57
2023-06-10T07:46:27.597Z,9.02
2023-06-10T07:48:55.719Z,9.73
2023-06-10T07:51:24.308Z,11.25
2023-06-10T07:53:52.084Z,11.80
2023-06-10T07:56:21.359Z,10.50
2023-06-10T07:58:51.392Z,7.00
2023-06-10T08:01:19.068Z,9.00
2023-06-10T08:03:46.760Z,11.20
2023-06-10T08:06:14.257Z,10.80
2023-06-10T08:08:41.813Z,11.15
2023-06-10T08:11:09.435Z,7.82
2023-06-10T08:13:36.888Z,9.55
2023-06-10T08:16:06.284Z,8.55
2023-06-10T08:18:33.968Z,6.95
2023-06-10T08:21:01.451Z,14.07
2023-06-10T08:23:29.837Z,10.48
2023-06-10T08:25:57.494Z,13.52
2023-06-10T08:28:25.507Z,6.53
2023-06-10T08:30:58.910Z,10.55
2023-06-10T08:33:29.392Z,10.60
2023-06-10T08:35:56.883Z,8.90
2023-06-10T08:38:28.609Z,13.07
2023-06-10T08:41:10.190Z,16.35
2023-06-10T08:44:03.875Z,7.05
2023-06-10T08:46:35.498Z,13.18
2023-06-10T08:51:57.548Z,10.80
2023-06-10T08:54:44.297Z,9.07
2023-06-10T08:57:15.194Z,15.35
2023-06-10T08:59:42.883Z,11.45
2023-06-10T09:02:17.076Z,13.07
2023-06-10T09:04:51.021Z,10.15
2023-06-10T09:07:18.565Z,13.05
2023-06-10T09:09:46.878Z,13.65
2023-06-10T09:12:16.356Z,9.05
2023-06-10T09:14:44.473Z,7.32
2023-06-10T09:17:13.393Z,10.60
2023-06-10T09:19:43.053Z,8.75
2023-06-10T09:22:12.124Z,9.30
2023-06-10T09:24:40.744Z,8.65
2023-06-10T09:27:09.986Z,9.48
2023-06-10T09:29:54.661Z,10.77
2023-06-10T09:32:23.059Z,12.45
2023-06-10T09:34:50.817Z,10.15
2023-06-10T09:37:23.728Z,8.43
2023-06-10T09:40:05.619Z,11.32
2023-06-10T09:42:37.360Z,13.43
2023-06-10T09:45:06.198Z,10.82
2023-06-10T09:47:33.734Z,10.18
2023-06-10T09:50:01.400Z,12.18
2023-06-10T09:52:31.060Z,9.95
2023-06-10T09:55:01.470Z,12.40
2023-06-10T09:57:32.784Z,11.32
2023-06-10T10:00:08.318Z,11.70
2023-06-10T10:02:45.604Z,13.07
2023-06-10T10:05:15.092Z,11.13
2023-06-10T10:07:45.842Z,7.03
2023-06-10T10:10:14.747Z,10.45
2023-06-10T10:12:43.720Z,8.77
2023-06-10T10:15:12.550Z,10.90
2023-06-10T10:17:46.273Z,7.05
2023-06-10T10:20:15.934Z,8.30
2023-06-10T10:22:52.357Z,7.60
2023-06-10T10:25:29.830Z,9.13
2023-06-10T10:28:07.563Z,6.22
2023-06-10T10:30:40.886Z,11.10
2023-06-10T10:33:17.655Z,9.73
2023-06-10T10:35:47.270Z,13.50
2023-06-10T10:38:16.896Z,11.32
2023-06-10T10:40:47.113Z,8.73
2023-06-10T10:43:16.491Z,11.18
2023-06-10T10:45:46.321Z,10.25
2023-06-10T10:48:15.722Z,12.25
2023-06-10T10:50:57.182Z,11.63
2023-06-10T10:53:26.688Z,6.45
2023-06-10T10:56:05.542Z,8.25
2023-06-10T10:58:36.446Z,9.27
2023-06-10T11:01:19.052Z,11.52
2023-06-10T11:03:48.257Z,6.97
2023-06-10T11:06:24.151Z,6.55
2023-06-10T11:09:05.362Z,9.70
2023-06-10T11:11:53.425Z,11.63
2023-06-10T11:14:30.047Z,9.13
2023-06-10T11:17:00.118Z,11.73
2023-06-10T11:19:41.439Z,12.10
2023-06-10T11:22:20.887Z,13.43
2023-06-10T11:29:07.498Z,9.80
2023-06-10T11:31:44.189Z,12.45
2023-06-10T11:34:12.578Z,11.15
2023-06-10T11:43:02.407Z,8.50
2023-06-10T11:45:44.745Z,10.27
2023-06-10T11:48:13.714Z,10.93
2023-06-10T11:50:41.724Z,11.15
2023-06-10T11:53:10.083Z,15.48
2023-06-10T11:55:45.422Z,13.05
2023-06-10T11:58:19.081Z,11.80
2023-06-10T12:00:49.930Z,15.25
2023-06-10T12:03:49.170Z,11.02
2023-06-10T12:06:17.148Z,13.77
2023-06-10T12:08:47.152Z,13.80
2023-06-10T12:11:14.878Z,13.10
2023-06-10T12:13:47.915Z,17.67
2023-06-10T12:16:27.525Z,9.40
2023-06-10T12:19:03.235Z,13.77
2023-06-10T12:21:32.574Z,13.77
2023-06-10T12:24:10.437Z,14.75
2023-06-10T12:26:40.406Z,13.48
2023-06-10T12:29:20.508Z,15.75
2023-06-10T12:32:08.118Z,17.53
2023-06-10T12:38:00.470Z,14.52
2023-06-10T12:43:29.519Z,15.43
2023-06-10T12:46:15.780Z,9.60
2023-06-10T12:49:37.165Z,11.27
2023-06-10T12:52:07.170Z,11.00
2023-06-10T12:54:35.668Z,10.75
2023-06-10T12:57:07.092Z,14.38
2023-06-10T12:59:38.529Z,16.45
